Terminal Aerodrome Forecast
Issued by NWS

Home | Current Version | Previous Version | Graphics & Text | Print | Product List | Glossary On
Versions: 1 2 3 4 5 6 7 8 9 10 11 12 13 14 15 16 17 18 19 20 21 22 23 24 25 26 27 28 29 30 31 32 33 34 35 36 37 38 39 40 41 42 43 44 45 46 47 48
000
FTUS43 KLOT 090525
TAFGYY
TAF
KGYY 090525Z 0906/1006 23010KT 6SM -SN OVC040
     FM090700 23009KT 3SM -SN OVC030
      TEMPO 0908/0911 1SM -SN SCT009 OVC015
     FM091100 29011KT 4SM -SHSN OVC020
     FM091400 32015G23KT P6SM -SHSN BKN025
     FM091600 33023G34KT P6SM -SHSN OVC025
      TEMPO 0917/0920 1SM -SHSN OVC020
     FM100200 31015G22KT P6SM BKN200=

USA.gov is the U.S. government's official web portal to all federal, state and local government web resources and services.